sensor_id;sensor_type;location;lat;lon;timestamp;P1;durP1;ratioP1;P2;durP2;ratioP2
20441;SDS011;10380;52.102;20.614;2022-12-18T00:06:32;36.57;;;16.07;;
20441;SDS011;10380;52.102;20.614;2022-12-18T00:09:02;37.13;;;18.53;;
20441;SDS011;10380;52.102;20.614;2022-12-18T00:11:31;48.80;;;21.53;;
20441;SDS011;10380;52.102;20.614;2022-12-18T00:13:59;43.37;;;17.50;;
20441;SDS011;10380;52.102;20.614;2022-12-18T00:16:26;47.67;;;19.53;;
20441;SDS011;10380;52.102;20.614;2022-12-18T00:18:57;37.97;;;18.23;;
20441;SDS011;10380;52.102;20.614;2022-12-18T00:21:31;36.77;;;15.13;;
20441;SDS011;10380;52.102;20.614;2022-12-18T00:24:02;39.37;;;16.67;;
20441;SDS011;10380;52.102;20.614;2022-12-18T00:26:29;39.87;;;19.73;;
20441;SDS011;10380;52.102;20.614;2022-12-18T00:28:58;36.70;;;17.47;;
20441;SDS011;10380;52.102;20.614;2022-12-18T00:31:39;37.63;;;15.60;;
20441;SDS011;10380;52.102;20.614;2022-12-18T00:34:06;44.13;;;19.80;;
20441;SDS011;10380;52.102;20.614;2022-12-18T00:36:35;23.97;;;11.10;;
20441;SDS011;10380;52.102;20.614;2022-12-18T00:39:03;21.20;;;9.57;;
20441;SDS011;10380;52.102;20.614;2022-12-18T00:41:48;36.80;;;13.97;;
20441;SDS011;10380;52.102;20.614;2022-12-18T00:44:40;43.87;;;18.23;;
20441;SDS011;10380;52.102;20.614;2022-12-18T00:47:07;32.03;;;14.67;;
20441;SDS011;10380;52.102;20.614;2022-12-18T00:49:36;34.87;;;15.93;;
20441;SDS011;10380;52.102;20.614;2022-12-18T00:52:05;27.13;;;14.60;;
20441;SDS011;10380;52.102;20.614;2022-12-18T00:54:33;32.83;;;14.00;;
20441;SDS011;10380;52.102;20.614;2022-12-18T00:57:03;57.87;;;25.23;;
20441;SDS011;10380;52.102;20.614;2022-12-18T00:59:30;25.23;;;11.17;;
20441;SDS011;10380;52.102;20.614;2022-12-18T01:01:59;26.30;;;13.03;;
20441;SDS011;10380;52.102;20.614;2022-12-18T01:06:59;32.33;;;14.17;;
20441;SDS011;10380;52.102;20.614;2022-12-18T01:09:27;30.57;;;15.83;;
20441;SDS011;10380;52.102;20.614;2022-12-18T01:12:02;28.53;;;13.70;;
20441;SDS011;10380;52.102;20.614;2022-12-18T01:14:29;49.97;;;18.70;;
20441;SDS011;10380;52.102;20.614;2022-12-18T01:16:58;30.13;;;12.63;;
20441;SDS011;10380;52.102;20.614;2022-12-18T01:19:26;24.60;;;12.10;;
20441;SDS011;10380;52.102;20.614;2022-12-18T01:21:53;37.00;;;16.27;;
20441;SDS011;10380;52.102;20.614;2022-12-18T01:24:20;24.53;;;12.97;;
20441;SDS011;10380;52.102;20.614;2022-12-18T01:26:47;35.20;;;14.87;;
20441;SDS011;10380;52.102;20.614;2022-12-18T01:29:15;35.90;;;12.77;;
20441;SDS011;10380;52.102;20.614;2022-12-18T01:31:49;31.13;;;13.27;;
20441;SDS011;10380;52.102;20.614;2022-12-18T01:34:18;44.97;;;16.33;;
20441;SDS011;10380;52.102;20.614;2022-12-18T01:36:52;29.37;;;14.03;;
20441;SDS011;10380;52.102;20.614;2022-12-18T01:39:19;37.47;;;13.90;;
20441;SDS011;10380;52.102;20.614;2022-12-18T01:41:46;39.63;;;18.30;;
20441;SDS011;10380;52.102;20.614;2022-12-18T01:52:40;43.10;;;15.87;;
20441;SDS011;10380;52.102;20.614;2022-12-18T01:55:19;54.10;;;22.53;;
20441;SDS011;10380;52.102;20.614;2022-12-18T01:57:58;68.67;;;27.17;;
20441;SDS011;10380;52.102;20.614;2022-12-18T02:00:27;44.73;;;19.67;;
20441;SDS011;10380;52.102;20.614;2022-12-18T02:02:56;54.67;;;20.70;;
20441;SDS011;10380;52.102;20.614;2022-12-18T02:11:07;58.97;;;23.53;;
20441;SDS011;10380;52.102;20.614;2022-12-18T02:22:29;58.87;;;23.73;;
20441;SDS011;10380;52.102;20.614;2022-12-18T02:27:50;56.00;;;22.77;;
20441;SDS011;10380;52.102;20.614;2022-12-18T02:32:50;37.67;;;15.70;;
20441;SDS011;10380;52.102;20.614;2022-12-18T02:40:30;57.20;;;21.33;;
20441;SDS011;10380;52.102;20.614;2022-12-18T02:43:07;55.23;;;22.90;;
20441;SDS011;10380;52.102;20.614;2022-12-18T02:45:35;43.77;;;18.70;;
20441;SDS011;10380;52.102;20.614;2022-12-18T02:48:15;44.50;;;21.03;;
20441;SDS011;10380;52.102;20.614;2022-12-18T02:53:52;56.77;;;19.40;;
20441;SDS011;10380;52.102;20.614;2022-12-18T02:56:27;33.60;;;12.10;;
20441;SDS011;10380;52.102;20.614;2022-12-18T02:59:22;44.93;;;17.40;;
20441;SDS011;10380;52.102;20.614;2022-12-18T03:04:57;24.30;;;11.87;;
20441;SDS011;10380;52.102;20.614;2022-12-18T03:10:21;23.93;;;11.17;;
20441;SDS011;10380;52.102;20.614;2022-12-18T03:13:05;27.90;;;12.70;;
20441;SDS011;10380;52.102;20.614;2022-12-18T03:15:41;32.17;;;13.70;;
20441;SDS011;10380;52.102;20.614;2022-12-18T03:18:17;33.17;;;16.47;;
20441;SDS011;10380;52.102;20.614;2022-12-18T03:20:53;25.53;;;13.43;;
20441;SDS011;10380;52.102;20.614;2022-12-18T03:23:27;30.97;;;15.03;;
20441;SDS011;10380;52.102;20.614;2022-12-18T03:26:04;20.00;;;9.90;;
20441;SDS011;10380;52.102;20.614;2022-12-18T03:28:38;30.43;;;13.23;;
20441;SDS011;10380;52.102;20.614;2022-12-18T03:31:11;33.40;;;14.53;;
20441;SDS011;10380;52.102;20.614;2022-12-18T03:33:51;36.17;;;17.03;;
20441;SDS011;10380;52.102;20.614;2022-12-18T03:36:26;30.37;;;16.20;;
20441;SDS011;10380;52.102;20.614;2022-12-18T03:38:55;20.63;;;10.40;;
20441;SDS011;10380;52.102;20.614;2022-12-18T03:49:43;31.47;;;14.10;;
20441;SDS011;10380;52.102;20.614;2022-12-18T03:52:18;24.77;;;11.17;;
20441;SDS011;10380;52.102;20.614;2022-12-18T03:54:58;37.90;;;17.83;;
20441;SDS011;10380;52.102;20.614;2022-12-18T03:57:28;20.27;;;10.63;;
20441;SDS011;10380;52.102;20.614;2022-12-18T04:00:00;35.87;;;16.73;;
20441;SDS011;10380;52.102;20.614;2022-12-18T04:02:36;21.73;;;10.20;;
20441;SDS011;10380;52.102;20.614;2022-12-18T04:05:13;27.70;;;13.30;;
20441;SDS011;10380;52.102;20.614;2022-12-18T04:07:41;20.60;;;9.90;;
20441;SDS011;10380;52.102;20.614;2022-12-18T04:10:18;17.13;;;8.77;;
20441;SDS011;10380;52.102;20.614;2022-12-18T04:12:45;31.80;;;11.57;;
20441;SDS011;10380;52.102;20.614;2022-12-18T04:17:48;35.23;;;13.83;;
20441;SDS011;10380;52.102;20.614;2022-12-18T04:20:17;27.43;;;11.77;;
20441;SDS011;10380;52.102;20.614;2022-12-18T04:25:14;19.63;;;8.87;;
20441;SDS011;10380;52.102;20.614;2022-12-18T04:30:19;39.13;;;17.20;;
20441;SDS011;10380;52.102;20.614;2022-12-18T04:32:45;33.93;;;14.67;;
20441;SDS011;10380;52.102;20.614;2022-12-18T04:37:49;25.00;;;10.40;;
20441;SDS011;10380;52.102;20.614;2022-12-18T04:40:24;21.13;;;6.90;;
20441;SDS011;10380;52.102;20.614;2022-12-18T04:42:50;25.17;;;11.53;;
20441;SDS011;10380;52.102;20.614;2022-12-18T04:45:21;29.13;;;10.67;;
20441;SDS011;10380;52.102;20.614;2022-12-18T04:50:35;26.17;;;11.90;;
20441;SDS011;10380;52.102;20.614;2022-12-18T04:53:14;26.60;;;11.37;;
20441;SDS011;10380;52.102;20.614;2022-12-18T04:55:47;30.27;;;14.67;;
20441;SDS011;10380;52.102;20.614;2022-12-18T04:58:14;28.77;;;13.70;;
20441;SDS011;10380;52.102;20.614;2022-12-18T05:00:47;30.27;;;14.03;;
20441;SDS011;10380;52.102;20.614;2022-12-18T05:03:14;30.27;;;12.73;;
20441;SDS011;10380;52.102;20.614;2022-12-18T05:05:44;33.90;;;14.50;;
20441;SDS011;10380;52.102;20.614;2022-12-18T05:08:11;40.10;;;14.23;;
20441;SDS011;10380;52.102;20.614;2022-12-18T05:10:40;19.97;;;9.97;;
20441;SDS011;10380;52.102;20.614;2022-12-18T05:13:09;37.77;;;16.03;;
20441;SDS011;10380;52.102;20.614;2022-12-18T05:15:37;34.17;;;14.67;;
20441;SDS011;10380;52.102;20.614;2022-12-18T05:18:07;34.03;;;17.37;;
20441;SDS011;10380;52.102;20.614;2022-12-18T05:20:37;46.93;;;20.43;;
20441;SDS011;10380;52.102;20.614;2022-12-18T05:23:07;49.70;;;21.47;;
20441;SDS011;10380;52.102;20.614;2022-12-18T05:28:06;45.07;;;16.07;;
20441;SDS011;10380;52.102;20.614;2022-12-18T05:30:33;31.20;;;15.83;;
20441;SDS011;10380;52.102;20.614;2022-12-18T05:33:00;50.23;;;18.97;;
20441;SDS011;10380;52.102;20.614;2022-12-18T05:35:27;53.63;;;21.93;;
20441;SDS011;10380;52.102;20.614;2022-12-18T05:38:02;43.00;;;17.90;;
20441;SDS011;10380;52.102;20.614;2022-12-18T05:40:29;44.73;;;17.90;;
20441;SDS011;10380;52.102;20.614;2022-12-18T05:42:58;31.93;;;14.63;;
20441;SDS011;10380;52.102;20.614;2022-12-18T05:45:28;59.20;;;23.73;;
20441;SDS011;10380;52.102;20.614;2022-12-18T05:48:02;62.73;;;24.50;;
20441;SDS011;10380;52.102;20.614;2022-12-18T05:50:29;46.00;;;19.47;;
20441;SDS011;10380;52.102;20.614;2022-12-18T05:52:56;56.90;;;23.80;;
20441;SDS011;10380;52.102;20.614;2022-12-18T05:55:26;47.03;;;19.83;;
20441;SDS011;10380;52.102;20.614;2022-12-18T05:57:54;53.03;;;22.23;;
20441;SDS011;10380;52.102;20.614;2022-12-18T06:00:27;52.97;;;21.93;;
20441;SDS011;10380;52.102;20.614;2022-12-18T06:02:54;64.33;;;26.20;;
20441;SDS011;10380;52.102;20.614;2022-12-18T06:07:51;50.73;;;20.43;;
20441;SDS011;10380;52.102;20.614;2022-12-18T06:10:19;57.90;;;24.70;;
20441;SDS011;10380;52.102;20.614;2022-12-18T06:15:18;41.17;;;18.57;;
20441;SDS011;10380;52.102;20.614;2022-12-18T06:17:46;57.53;;;25.43;;
20441;SDS011;10380;52.102;20.614;2022-12-18T06:20:17;32.97;;;16.63;;
20441;SDS011;10380;52.102;20.614;2022-12-18T06:22:47;49.77;;;22.53;;
20441;SDS011;10380;52.102;20.614;2022-12-18T06:25:14;51.23;;;22.77;;
20441;SDS011;10380;52.102;20.614;2022-12-18T06:27:43;63.87;;;26.43;;
20441;SDS011;10380;52.102;20.614;2022-12-18T06:30:17;56.57;;;20.97;;
20441;SDS011;10380;52.102;20.614;2022-12-18T06:32:44;46.30;;;19.00;;
20441;SDS011;10380;52.102;20.614;2022-12-18T06:35:34;50.03;;;21.73;;
20441;SDS011;10380;52.102;20.614;2022-12-18T06:38:03;57.43;;;26.03;;
20441;SDS011;10380;52.102;20.614;2022-12-18T06:40:30;43.23;;;16.10;;
20441;SDS011;10380;52.102;20.614;2022-12-18T06:42:59;52.30;;;22.57;;
20441;SDS011;10380;52.102;20.614;2022-12-18T06:45:30;44.67;;;21.93;;
20441;SDS011;10380;52.102;20.614;2022-12-18T06:47:57;53.70;;;23.90;;
20441;SDS011;10380;52.102;20.614;2022-12-18T06:50:24;44.83;;;18.37;;
20441;SDS011;10380;52.102;20.614;2022-12-18T06:52:57;49.23;;;22.13;;
20441;SDS011;10380;52.102;20.614;2022-12-18T06:55:36;45.10;;;19.27;;
20441;SDS011;10380;52.102;20.614;2022-12-18T06:58:09;41.17;;;19.37;;
20441;SDS011;10380;52.102;20.614;2022-12-18T07:03:14;48.90;;;21.80;;
20441;SDS011;10380;52.102;20.614;2022-12-18T07:05:41;52.57;;;21.93;;
20441;SDS011;10380;52.102;20.614;2022-12-18T07:08:08;52.03;;;23.10;;
20441;SDS011;10380;52.102;20.614;2022-12-18T07:10:42;45.33;;;19.60;;
20441;SDS011;10380;52.102;20.614;2022-12-18T07:13:14;45.40;;;22.03;;
20441;SDS011;10380;52.102;20.614;2022-12-18T07:15:42;50.57;;;19.87;;
20441;SDS011;10380;52.102;20.614;2022-12-18T07:18:12;58.67;;;25.03;;
20441;SDS011;10380;52.102;20.614;2022-12-18T07:20:40;16.67;;;8.47;;
20441;SDS011;10380;52.102;20.614;2022-12-18T07:23:07;60.37;;;25.23;;
20441;SDS011;10380;52.102;20.614;2022-12-18T07:25:36;58.20;;;23.47;;
20441;SDS011;10380;52.102;20.614;2022-12-18T07:28:03;53.93;;;23.60;;
20441;SDS011;10380;52.102;20.614;2022-12-18T07:30:30;68.53;;;25.77;;
20441;SDS011;10380;52.102;20.614;2022-12-18T07:32:58;54.40;;;23.53;;
20441;SDS011;10380;52.102;20.614;2022-12-18T07:35:25;61.70;;;24.40;;
20441;SDS011;10380;52.102;20.614;2022-12-18T07:37:52;60.43;;;24.87;;
20441;SDS011;10380;52.102;20.614;2022-12-18T07:40:19;54.03;;;23.37;;
20441;SDS011;10380;52.102;20.614;2022-12-18T07:42:45;58.03;;;23.47;;
20441;SDS011;10380;52.102;20.614;2022-12-18T07:45:13;55.43;;;23.20;;
20441;SDS011;10380;52.102;20.614;2022-12-18T07:47:41;56.37;;;22.43;;
20441;SDS011;10380;52.102;20.614;2022-12-18T07:50:14;48.23;;;22.83;;
20441;SDS011;10380;52.102;20.614;2022-12-18T07:52:41;49.60;;;23.30;;
20441;SDS011;10380;52.102;20.614;2022-12-18T07:55:08;49.90;;;21.43;;
20441;SDS011;10380;52.102;20.614;2022-12-18T07:57:35;49.07;;;21.83;;
20441;SDS011;10380;52.102;20.614;2022-12-18T08:00:22;53.93;;;21.50;;
20441;SDS011;10380;52.102;20.614;2022-12-18T08:02:50;32.47;;;10.97;;
20441;SDS011;10380;52.102;20.614;2022-12-18T08:05:18;27.83;;;12.77;;
20441;SDS011;10380;52.102;20.614;2022-12-18T08:07:46;41.50;;;19.83;;
20441;SDS011;10380;52.102;20.614;2022-12-18T08:10:13;50.27;;;21.30;;
20441;SDS011;10380;52.102;20.614;2022-12-18T08:12:40;53.80;;;23.03;;
20441;SDS011;10380;52.102;20.614;2022-12-18T08:15:07;58.13;;;25.23;;
20441;SDS011;10380;52.102;20.614;2022-12-18T08:17:35;58.03;;;22.90;;
20441;SDS011;10380;52.102;20.614;2022-12-18T08:20:02;54.17;;;22.37;;
20441;SDS011;10380;52.102;20.614;2022-12-18T08:22:29;54.03;;;23.17;;
20441;SDS011;10380;52.102;20.614;2022-12-18T08:24:58;63.83;;;28.27;;
20441;SDS011;10380;52.102;20.614;2022-12-18T08:27:25;36.83;;;17.47;;
20441;SDS011;10380;52.102;20.614;2022-12-18T08:29:56;52.80;;;23.47;;
20441;SDS011;10380;52.102;20.614;2022-12-18T08:32:24;66.43;;;26.13;;
20441;SDS011;10380;52.102;20.614;2022-12-18T08:34:51;56.53;;;22.47;;
20441;SDS011;10380;52.102;20.614;2022-12-18T08:37:18;36.67;;;18.63;;
20441;SDS011;10380;52.102;20.614;2022-12-18T08:39:45;53.17;;;21.23;;
20441;SDS011;10380;52.102;20.614;2022-12-18T08:42:12;37.43;;;18.30;;
20441;SDS011;10380;52.102;20.614;2022-12-18T08:44:57;56.33;;;23.87;;
20441;SDS011;10380;52.102;20.614;2022-12-18T08:47:25;51.20;;;21.27;;
20441;SDS011;10380;52.102;20.614;2022-12-18T08:49:52;54.67;;;24.93;;
20441;SDS011;10380;52.102;20.614;2022-12-18T08:52:19;29.70;;;12.53;;
20441;SDS011;10380;52.102;20.614;2022-12-18T08:54:46;58.27;;;23.53;;
20441;SDS011;10380;52.102;20.614;2022-12-18T08:57:13;53.13;;;24.13;;
20441;SDS011;10380;52.102;20.614;2022-12-18T08:59:39;45.83;;;21.70;;
20441;SDS011;10380;52.102;20.614;2022-12-18T09:02:08;48.00;;;20.87;;
20441;SDS011;10380;52.102;20.614;2022-12-18T09:04:37;55.10;;;23.63;;
20441;SDS011;10380;52.102;20.614;2022-12-18T09:07:03;47.10;;;21.20;;
20441;SDS011;10380;52.102;20.614;2022-12-18T09:09:30;54.93;;;23.13;;
20441;SDS011;10380;52.102;20.614;2022-12-18T09:11:57;49.03;;;23.47;;
20441;SDS011;10380;52.102;20.614;2022-12-18T09:14:24;49.67;;;23.77;;
20441;SDS011;10380;52.102;20.614;2022-12-18T09:16:51;52.23;;;21.77;;
20441;SDS011;10380;52.102;20.614;2022-12-18T09:19:18;54.83;;;23.10;;
20441;SDS011;10380;52.102;20.614;2022-12-18T09:21:44;55.53;;;22.50;;
20441;SDS011;10380;52.102;20.614;2022-12-18T09:24:13;55.70;;;21.10;;
20441;SDS011;10380;52.102;20.614;2022-12-18T09:26:41;45.60;;;20.17;;
20441;SDS011;10380;52.102;20.614;2022-12-18T09:29:12;45.77;;;18.90;;
20441;SDS011;10380;52.102;20.614;2022-12-18T09:31:46;59.60;;;23.03;;
20441;SDS011;10380;52.102;20.614;2022-12-18T09:34:14;50.40;;;22.00;;
20441;SDS011;10380;52.102;20.614;2022-12-18T09:36:41;82.17;;;35.40;;
20441;SDS011;10380;52.102;20.614;2022-12-18T09:39:08;54.73;;;26.37;;
20441;SDS011;10380;52.102;20.614;2022-12-18T09:44:51;55.63;;;23.90;;
20441;SDS011;10380;52.102;20.614;2022-12-18T09:50:03;44.00;;;20.70;;
20441;SDS011;10380;52.102;20.614;2022-12-18T09:52:47;52.83;;;23.20;;
20441;SDS011;10380;52.102;20.614;2022-12-18T09:58:00;28.27;;;11.97;;
20441;SDS011;10380;52.102;20.614;2022-12-18T10:00:34;47.63;;;20.63;;
20441;SDS011;10380;52.102;20.614;2022-12-18T10:03:08;56.10;;;23.97;;
20441;SDS011;10380;52.102;20.614;2022-12-18T10:08:22;53.73;;;23.53;;
20441;SDS011;10380;52.102;20.614;2022-12-18T10:11:48;48.50;;;21.93;;
20441;SDS011;10380;52.102;20.614;2022-12-18T10:14:07;48.70;;;21.90;;
20441;SDS011;10380;52.102;20.614;2022-12-18T10:22:25;38.00;;;15.90;;
20441;SDS011;10380;52.102;20.614;2022-12-18T10:27:43;44.80;;;20.10;;
20441;SDS011;10380;52.102;20.614;2022-12-18T10:30:17;34.03;;;16.60;;
20441;SDS011;10380;52.102;20.614;2022-12-18T10:32:45;41.90;;;19.97;;
20441;SDS011;10380;52.102;20.614;2022-12-18T10:35:24;46.73;;;19.20;;
20441;SDS011;10380;52.102;20.614;2022-12-18T10:43:43;51.40;;;24.67;;
20441;SDS011;10380;52.102;20.614;2022-12-18T10:48:41;41.27;;;19.60;;
20441;SDS011;10380;52.102;20.614;2022-12-18T10:53:57;39.17;;;17.43;;
20441;SDS011;10380;52.102;20.614;2022-12-18T10:56:27;28.97;;;13.37;;
20441;SDS011;10380;52.102;20.614;2022-12-18T10:58:57;47.33;;;22.50;;
20441;SDS011;10380;52.102;20.614;2022-12-18T11:01:26;49.37;;;23.53;;
20441;SDS011;10380;52.102;20.614;2022-12-18T11:06:28;44.60;;;20.90;;
20441;SDS011;10380;52.102;20.614;2022-12-18T11:09:05;44.27;;;20.27;;
20441;SDS011;10380;52.102;20.614;2022-12-18T11:11:52;51.50;;;21.57;;
20441;SDS011;10380;52.102;20.614;2022-12-18T11:14:22;45.20;;;21.83;;
20441;SDS011;10380;52.102;20.614;2022-12-18T11:16:51;54.83;;;24.33;;
20441;SDS011;10380;52.102;20.614;2022-12-18T11:19:41;60.27;;;29.63;;
20441;SDS011;10380;52.102;20.614;2022-12-18T11:24:56;44.77;;;20.17;;
20441;SDS011;10380;52.102;20.614;2022-12-18T11:33:50;46.20;;;23.13;;
20441;SDS011;10380;52.102;20.614;2022-12-18T11:36:41;80.43;;;39.63;;
20441;SDS011;10380;52.102;20.614;2022-12-18T11:39:23;64.30;;;35.70;;
20441;SDS011;10380;52.102;20.614;2022-12-18T11:44:41;42.30;;;20.43;;
20441;SDS011;10380;52.102;20.614;2022-12-18T11:52:51;58.37;;;24.33;;
20441;SDS011;10380;52.102;20.614;2022-12-18T11:58:53;59.13;;;25.47;;
20441;SDS011;10380;52.102;20.614;2022-12-18T12:03:58;62.07;;;26.67;;
20441;SDS011;10380;52.102;20.614;2022-12-18T12:10:09;58.67;;;27.83;;
20441;SDS011;10380;52.102;20.614;2022-12-18T12:16:09;47.20;;;22.53;;
20441;SDS011;10380;52.102;20.614;2022-12-18T12:21:40;60.43;;;27.87;;
20441;SDS011;10380;52.102;20.614;2022-12-18T12:40:26;60.80;;;28.43;;
20441;SDS011;10380;52.102;20.614;2022-12-18T12:43:20;49.57;;;22.23;;
20441;SDS011;10380;52.102;20.614;2022-12-18T12:45:57;62.63;;;29.33;;
20441;SDS011;10380;52.102;20.614;2022-12-18T12:51:00;51.87;;;24.67;;
20441;SDS011;10380;52.102;20.614;2022-12-18T12:53:34;60.67;;;26.33;;
20441;SDS011;10380;52.102;20.614;2022-12-18T12:56:05;139.77;;;54.67;;
20441;SDS011;10380;52.102;20.614;2022-12-18T13:06:47;85.17;;;37.80;;
20441;SDS011;10380;52.102;20.614;2022-12-18T13:09:19;106.17;;;43.23;;
20441;SDS011;10380;52.102;20.614;2022-12-18T13:11:47;78.87;;;33.03;;
20441;SDS011;10380;52.102;20.614;2022-12-18T13:14:36;53.10;;;25.93;;
20441;SDS011;10380;52.102;20.614;2022-12-18T13:17:15;153.33;;;57.37;;
20441;SDS011;10380;52.102;20.614;2022-12-18T13:19:43;58.27;;;28.70;;
20441;SDS011;10380;52.102;20.614;2022-12-18T13:22:21;54.43;;;25.53;;
20441;SDS011;10380;52.102;20.614;2022-12-18T13:24:50;57.40;;;24.93;;
20441;SDS011;10380;52.102;20.614;2022-12-18T13:41:01;55.20;;;23.57;;
20441;SDS011;10380;52.102;20.614;2022-12-18T13:43:49;46.17;;;22.00;;
20441;SDS011;10380;52.102;20.614;2022-12-18T13:46:47;53.63;;;23.20;;
20441;SDS011;10380;52.102;20.614;2022-12-18T13:51:44;54.97;;;24.03;;
20441;SDS011;10380;52.102;20.614;2022-12-18T14:00:16;49.70;;;23.87;;
20441;SDS011;10380;52.102;20.614;2022-12-18T14:02:45;57.97;;;22.70;;
20441;SDS011;10380;52.102;20.614;2022-12-18T14:07:52;52.57;;;22.53;;
20441;SDS011;10380;52.102;20.614;2022-12-18T14:10:21;52.90;;;23.03;;
20441;SDS011;10380;52.102;20.614;2022-12-18T14:13:10;56.93;;;24.90;;
20441;SDS011;10380;52.102;20.614;2022-12-18T14:15:43;50.87;;;23.93;;
20441;SDS011;10380;52.102;20.614;2022-12-18T14:20:41;58.57;;;24.90;;
20441;SDS011;10380;52.102;20.614;2022-12-18T14:23:28;59.83;;;24.67;;
20441;SDS011;10380;52.102;20.614;2022-12-18T14:26:24;51.70;;;24.83;;
20441;SDS011;10380;52.102;20.614;2022-12-18T14:28:56;51.43;;;24.03;;
20441;SDS011;10380;52.102;20.614;2022-12-18T14:31:28;54.80;;;25.70;;
20441;SDS011;10380;52.102;20.614;2022-12-18T14:33:56;58.83;;;25.50;;
20441;SDS011;10380;52.102;20.614;2022-12-18T14:36:25;65.03;;;25.60;;
20441;SDS011;10380;52.102;20.614;2022-12-18T14:38:57;50.70;;;25.80;;
20441;SDS011;10380;52.102;20.614;2022-12-18T14:41:25;53.97;;;23.93;;
20441;SDS011;10380;52.102;20.614;2022-12-18T14:43:53;58.50;;;25.40;;
20441;SDS011;10380;52.102;20.614;2022-12-18T14:46:43;60.10;;;24.97;;
20441;SDS011;10380;52.102;20.614;2022-12-18T14:52:03;61.83;;;28.63;;
20441;SDS011;10380;52.102;20.614;2022-12-18T14:54:33;59.63;;;26.23;;
20441;SDS011;10380;52.102;20.614;2022-12-18T14:57:15;56.97;;;26.70;;
20441;SDS011;10380;52.102;20.614;2022-12-18T14:59:48;57.80;;;24.60;;
20441;SDS011;10380;52.102;20.614;2022-12-18T15:02:18;50.27;;;22.70;;
20441;SDS011;10380;52.102;20.614;2022-12-18T15:05:02;54.47;;;22.80;;
20441;SDS011;10380;52.102;20.614;2022-12-18T15:07:41;52.23;;;23.13;;
20441;SDS011;10380;52.102;20.614;2022-12-18T15:12:50;57.13;;;25.00;;
20441;SDS011;10380;52.102;20.614;2022-12-18T15:18:04;49.70;;;21.73;;
20441;SDS011;10380;52.102;20.614;2022-12-18T15:20:40;48.47;;;20.93;;
20441;SDS011;10380;52.102;20.614;2022-12-18T15:23:18;47.87;;;21.10;;
20441;SDS011;10380;52.102;20.614;2022-12-18T15:25:59;50.90;;;21.67;;
20441;SDS011;10380;52.102;20.614;2022-12-18T15:28:43;50.10;;;22.03;;
20441;SDS011;10380;52.102;20.614;2022-12-18T15:33:41;59.90;;;24.07;;
20441;SDS011;10380;52.102;20.614;2022-12-18T15:36:25;56.13;;;24.23;;
20441;SDS011;10380;52.102;20.614;2022-12-18T15:38:53;57.30;;;24.97;;
20441;SDS011;10380;52.102;20.614;2022-12-18T15:41:34;77.27;;;33.87;;
20441;SDS011;10380;52.102;20.614;2022-12-18T15:44:02;62.77;;;26.93;;
20441;SDS011;10380;52.102;20.614;2022-12-18T15:46:41;57.50;;;25.23;;
20441;SDS011;10380;52.102;20.614;2022-12-18T15:49:08;61.13;;;27.53;;
20441;SDS011;10380;52.102;20.614;2022-12-18T15:51:36;63.57;;;26.37;;
20441;SDS011;10380;52.102;20.614;2022-12-18T15:54:05;62.50;;;28.23;;
20441;SDS011;10380;52.102;20.614;2022-12-18T15:56:38;65.07;;;27.13;;
20441;SDS011;10380;52.102;20.614;2022-12-18T15:59:23;56.60;;;25.43;;
20441;SDS011;10380;52.102;20.614;2022-12-18T16:01:51;56.70;;;25.40;;
20441;SDS011;10380;52.102;20.614;2022-12-18T16:04:20;62.80;;;26.53;;
20441;SDS011;10380;52.102;20.614;2022-12-18T16:06:49;71.23;;;31.03;;
20441;SDS011;10380;52.102;20.614;2022-12-18T16:09:38;68.23;;;29.63;;
20441;SDS011;10380;52.102;20.614;2022-12-18T16:12:05;52.43;;;22.03;;
20441;SDS011;10380;52.102;20.614;2022-12-18T16:14:33;58.33;;;23.30;;
20441;SDS011;10380;52.102;20.614;2022-12-18T16:17:01;60.37;;;25.37;;
20441;SDS011;10380;52.102;20.614;2022-12-18T16:19:29;63.60;;;26.53;;
20441;SDS011;10380;52.102;20.614;2022-12-18T16:21:57;61.67;;;26.67;;
20441;SDS011;10380;52.102;20.614;2022-12-18T16:24:25;60.37;;;25.63;;
20441;SDS011;10380;52.102;20.614;2022-12-18T16:26:57;58.47;;;23.90;;
20441;SDS011;10380;52.102;20.614;2022-12-18T16:29:26;58.70;;;24.30;;
20441;SDS011;10380;52.102;20.614;2022-12-18T16:31:54;59.57;;;23.10;;
20441;SDS011;10380;52.102;20.614;2022-12-18T16:34:26;70.57;;;27.07;;
20441;SDS011;10380;52.102;20.614;2022-12-18T16:36:55;67.77;;;26.30;;
20441;SDS011;10380;52.102;20.614;2022-12-18T16:39:31;56.87;;;24.47;;
20441;SDS011;10380;52.102;20.614;2022-12-18T16:42:00;58.70;;;25.37;;
20441;SDS011;10380;52.102;20.614;2022-12-18T16:44:31;60.20;;;25.13;;
20441;SDS011;10380;52.102;20.614;2022-12-18T16:46:59;57.67;;;24.60;;
20441;SDS011;10380;52.102;20.614;2022-12-18T16:49:28;59.07;;;24.30;;
20441;SDS011;10380;52.102;20.614;2022-12-18T16:51:55;52.43;;;23.50;;
20441;SDS011;10380;52.102;20.614;2022-12-18T16:54:22;56.43;;;23.90;;
20441;SDS011;10380;52.102;20.614;2022-12-18T16:56:50;54.87;;;24.80;;
20441;SDS011;10380;52.102;20.614;2022-12-18T16:59:17;69.00;;;29.93;;
20441;SDS011;10380;52.102;20.614;2022-12-18T17:01:45;54.57;;;22.80;;
20441;SDS011;10380;52.102;20.614;2022-12-18T17:04:12;48.33;;;20.97;;
20441;SDS011;10380;52.102;20.614;2022-12-18T17:06:41;53.90;;;24.40;;
20441;SDS011;10380;52.102;20.614;2022-12-18T17:09:13;48.40;;;19.07;;
20441;SDS011;10380;52.102;20.614;2022-12-18T17:11:43;53.20;;;23.13;;
20441;SDS011;10380;52.102;20.614;2022-12-18T17:14:12;52.13;;;19.60;;
20441;SDS011;10380;52.102;20.614;2022-12-18T17:16:40;41.40;;;17.27;;
20441;SDS011;10380;52.102;20.614;2022-12-18T17:19:08;52.47;;;21.70;;
20441;SDS011;10380;52.102;20.614;2022-12-18T17:21:42;56.93;;;22.17;;
20441;SDS011;10380;52.102;20.614;2022-12-18T17:24:10;57.33;;;22.83;;
20441;SDS011;10380;52.102;20.614;2022-12-18T17:26:37;56.80;;;21.53;;
20441;SDS011;10380;52.102;20.614;2022-12-18T17:29:04;54.10;;;22.03;;
20441;SDS011;10380;52.102;20.614;2022-12-18T17:31:32;59.20;;;23.03;;
20441;SDS011;10380;52.102;20.614;2022-12-18T17:34:02;53.80;;;22.57;;
20441;SDS011;10380;52.102;20.614;2022-12-18T17:36:30;49.43;;;19.97;;
20441;SDS011;10380;52.102;20.614;2022-12-18T17:38:58;57.17;;;23.37;;
20441;SDS011;10380;52.102;20.614;2022-12-18T17:41:27;55.10;;;23.07;;
20441;SDS011;10380;52.102;20.614;2022-12-18T17:43:56;53.40;;;24.30;;
20441;SDS011;10380;52.102;20.614;2022-12-18T17:46:28;54.17;;;22.20;;
20441;SDS011;10380;52.102;20.614;2022-12-18T17:48:57;58.33;;;22.90;;
20441;SDS011;10380;52.102;20.614;2022-12-18T17:51:24;51.27;;;21.80;;
20441;SDS011;10380;52.102;20.614;2022-12-18T17:53:52;54.77;;;23.37;;
20441;SDS011;10380;52.102;20.614;2022-12-18T17:56:20;61.33;;;24.63;;
20441;SDS011;10380;52.102;20.614;2022-12-18T17:58:48;59.10;;;25.77;;
20441;SDS011;10380;52.102;20.614;2022-12-18T18:01:17;53.93;;;23.93;;
20441;SDS011;10380;52.102;20.614;2022-12-18T18:03:46;67.73;;;25.20;;
20441;SDS011;10380;52.102;20.614;2022-12-18T18:06:21;57.40;;;23.67;;